PST,Max TemperatureF,Mean TemperatureF,Min TemperatureF,Max Dew PointF,MeanDew PointF,Min DewpointF,Max Humidity, Mean Humidity, Min Humidity, Max Sea Level PressureIn, Mean Sea Level PressureIn, Min Sea Level PressureIn, Max VisibilityMiles, Mean VisibilityMiles, Min VisibilityMiles, Max Wind SpeedMPH, Mean Wind SpeedMPH, Max Gust SpeedMPH,PrecipitationIn, CloudCover, Events, WindDirDegrees
2013-1-1,53,40,26,34,29,25,100,75,50,30.32,30.27,30.21,10,4,0,6,1,7,0.00,2,Fog,254
2013-1-2,57,42,26,36,29,25,100,69,38,30.26,30.20,30.14,10,8,1,6,0,9,0.00,1,,287
2013-1-3,53,40,26,38,31,24,96,71,46,30.29,30.24,30.19,10,9,4,5,0,6,0.00,4,,70
2013-1-4,59,44,29,40,34,28,100,70,40,30.32,30.25,30.17,10,8,2,5,0,9,0.00,0,,275
2013-1-5,44,37,30,43,35,28,100,91,82,30.26,30.19,30.10,10,4,0,10,1,13,0.78,7,Fog-Rain,316
2013-1-6,53,45,37,42,40,37,100,84,68,30.23,30.17,30.12,10,6,0,7,2,13,0.02,4,Fog-Rain,323
2013-1-7,62,50,37,47,42,35,100,93,85,30.28,30.22,30.18,10,10,10,13,3,16,0.00,1,,342
2013-1-8,64,49,34,45,40,34,100,73,46,30.27,30.20,30.12,10,6,0,8,1,9,0.00,1,Fog,290
2013-1-9,50,43,35,45,40,33,100,83,65,30.15,30.07,30.00,10,10,8,18,5,24,0.01,4,Rain,330
2013-1-10,49,40,31,34,30,28,96,73,50,30.22,30.13,30.08,10,10,9,18,6,24,0.00,1,,318
2013-1-11,50,40,29,34,31,27,92,72,52,30.26,30.20,30.14,10,10,8,15,3,22,0.00,1,,327
2013-1-12,50,38,26,31,27,24,92,66,39,30.27,30.20,30.13,10,10,8,6,1,9,0.00,1,,120
2013-1-13,50,37,24,27,25,21,92,64,36,30.28,30.23,30.19,10,9,7,7,0,8,0.00,0,,280
2013-1-14,54,39,23,28,24,14,88,55,22,30.41,30.36,30.29,10,10,6,7,1,8,0.00,0,,294
2013-1-15,59,43,26,34,29,24,92,60,28,30.51,30.43,30.39,10,10,6,5,0,5,0.00,0,,290
2013-1-16,63,45,27,39,32,26,96,66,36,30.45,30.36,30.27,10,9,7,5,0,6,0.00,0,,270
2013-1-17,65,46,27,37,32,26,92,62,31,30.30,30.23,30.15,10,9,6,6,0,8,0.00,0,,280
2013-1-18,66,47,27,33,30,25,92,58,23,30.27,30.20,30.14,10,9,6,3,0,15,0.00,0,,270
2013-1-19,64,45,26,32,30,24,92,60,27,30.30,30.23,30.17,10,10,9,7,0,8,0.00,0,,275
2013-1-20,65,46,26,36,29,24,92,60,27,30.28,30.22,30.13,10,10,7,6,0,7,0.00,0,,-1
2013-1-21,67,47,26,33,30,25,92,58,24,30.22,30.16,30.08,10,10,8,7,1,8,0.00,0,,312
2013-1-22,60,44,27,40,32,26,92,61,29,30.14,30.07,29.98,10,10,8,5,0,13,0.00,0,,-1
2013-1-23,53,47,41,47,45,37,100,86,71,30.11,30.06,29.96,10,6,1,8,2,16,0.41,8,Rain,336
2013-1-24,59,53,46,52,47,45,100,88,75,30.20,30.13,30.09,10,4,0,3,0,6,0.03,8,Fog-Rain,-1
2013-1-25,61,55,49,53,50,48,96,86,75,30.20,30.15,30.05,10,9,4,3,0,6,T,7,Rain,200
2013-1-26,54,47,40,48,39,31,93,72,50,30.09,30.03,29.99,10,10,10,20,6,26,T,3,,333
2013-1-27,53,43,32,35,33,30,92,67,41,30.21,30.15,30.09,10,10,10,21,7,28,0.00,0,,318
2013-1-28,54,45,36,37,35,34,85,68,50,30.35,30.25,30.20,10,10,10,22,7,28,0.00,1,,321
2013-1-29,61,50,38,41,37,34,89,68,46,30.38,30.35,30.30,10,10,10,14,5,21,0.00,0,,7
2013-1-30,68,50,32,44,38,31,92,65,37,30.38,30.32,30.25,10,10,7,7,1,8,0.00,0,,287
2013-1-31,68,50,32,42,36,30,100,66,32,30.32,30.26,30.18,10,10,6,7,0,8,0.00,0,,330